Time;durP1;ratioP1;P1;durP2;ratioP2;P2;SDS_P1;SDS_P2;PMS_P1;PMS_P2;Temp;Humidity;BMP_temperature;BMP_pressure;BME280_temperature;BME280_humidity;BME280_pressure;Samples;Min_cycle;Max_cycle;Signal;HPM_P1;HPM_P2
2024/01/13 00:01:24;;;;;;;;;;;;;;;18.01;54.04;101529.94;7391860;19;1773;-35
2024/01/13 00:03:52;;;;;;;;;;;;;;;18.05;54.30;101520.72;7390738;19;1617;-34
2024/01/13 00:06:21;;;;;;;;;;;;;;;18.03;54.20;101523.50;7391982;19;1241;-34
2024/01/13 00:08:49;;;;;;;;;;;;;;;18.12;54.09;101538.03;7392346;19;1473;-34
2024/01/13 00:11:20;;;;;;;;;;;;;;;18.04;54.28;101522.50;7391769;19;1768;-34
2024/01/13 00:13:48;;;;;;;;;;;;;;;18.03;54.28;101528.00;7377835;19;1587;-35
2024/01/13 00:16:16;;;;;;;;;;;;;;;18.08;54.29;101528.50;7392840;19;1238;-35
2024/01/13 00:18:45;;;;;;;;;;;;;;;18.06;54.02;101517.06;7392161;19;1876;-34
2024/01/13 00:21:13;;;;;;;;;;;;;;;18.06;54.09;101509.03;7391677;19;1833;-35
2024/01/13 00:23:42;;;;;;;;;;;;;;;18.07;54.40;101524.13;7391335;19;1431;-34
2024/01/13 00:26:10;;;;;;;;;;;;;;;17.97;54.25;101521.25;7390800;19;1825;-34
2024/01/13 00:28:41;;;;;;;;;;;;;;;17.99;54.17;101538.06;7392479;19;1400;-34
2024/01/13 00:31:09;;;;;;;;;;;;;;;18.06;54.17;101530.44;7392066;19;1638;-34
2024/01/13 00:33:43;;;;;;;;;;;;;;;18.03;54.29;101522.66;7391214;19;1754;-34
2024/01/13 00:36:11;;;;;;;;;;;;;;;18.02;54.23;101521.75;7391787;19;1607;-35
2024/01/13 00:38:40;;;;;;;;;;;;;;;18.10;53.97;101547.97;7389216;19;1855;-35
2024/01/13 00:41:08;;;;;;;;;;;;;;;18.03;54.22;101549.41;7391829;19;1588;-34
2024/01/13 00:43:36;;;;;;;;;;;;;;;18.02;54.19;101531.63;7391109;19;1473;-35
2024/01/13 00:46:07;;;;;;;;;;;;;;;18.03;54.46;101534.19;7391415;19;1140;-35
2024/01/13 00:48:36;;;;;;;;;;;;;;;18.03;54.22;101557.44;7392506;19;1483;-34
2024/01/13 00:51:07;;;;;;;;;;;;;;;18.01;54.25;101548.66;7398839;19;1554;-35
2024/01/13 00:53:35;;;;;;;;;;;;;;;17.97;54.27;101552.53;7398286;19;1899;-34
2024/01/13 00:56:03;;;;;;;;;;;;;;;18.03;54.18;101552.09;7398564;19;1472;-34
2024/01/13 00:58:32;;;;;;;;;;;;;;;17.97;54.26;101552.53;7397945;19;1847;-34
2024/01/13 01:01:02;;;;;;;;;;;;;;;17.98;54.24;101559.56;7398184;19;1404;-34
2024/01/13 01:03:33;;;;;;;;;;;;;;;17.97;54.22;101552.53;7398157;19;1737;-34
2024/01/13 01:06:02;;;;;;;;;;;;;;;17.95;54.42;101539.25;7396825;19;1848;-34
2024/01/13 01:08:30;;;;;;;;;;;;;;;18.00;54.24;101554.97;7397383;19;1761;-35
2024/01/13 01:10:58;;;;;;;;;;;;;;;18.02;54.10;101542.31;7398723;19;1587;-35
2024/01/13 01:13:27;;;;;;;;;;;;;;;17.96;54.13;101532.91;7399566;19;1031;-34
2024/01/13 01:15:55;;;;;;;;;;;;;;;18.04;54.23;101551.94;7383596;19;1864;-34
2024/01/13 01:18:23;;;;;;;;;;;;;;;17.99;54.20;101550.59;7398017;19;1907;-34
2024/01/13 01:20:54;;;;;;;;;;;;;;;18.00;54.21;101528.19;7394969;19;1837;-35
2024/01/13 01:23:24;;;;;;;;;;;;;;;17.94;54.09;101536.69;7398320;19;1699;-34
2024/01/13 01:25:52;;;;;;;;;;;;;;;17.94;54.33;101542.88;7397852;19;1265;-34
2024/01/13 01:28:22;;;;;;;;;;;;;;;17.96;54.51;101527.56;7396859;19;1364;-35
2024/01/13 01:30:50;;;;;;;;;;;;;;;17.98;54.19;101530.13;7397051;19;1130;-34
2024/01/13 01:33:19;;;;;;;;;;;;;;;18.00;54.27;101530.88;7396586;19;1849;-34
2024/01/13 01:35:47;;;;;;;;;;;;;;;17.99;54.29;101535.38;7395854;19;1460;-34
2024/01/13 01:38:18;;;;;;;;;;;;;;;17.97;54.34;101525.78;7395035;19;2005;-34
2024/01/13 01:40:47;;;;;;;;;;;;;;;17.99;54.45;101527.34;7395157;19;1851;-35
2024/01/13 01:43:15;;;;;;;;;;;;;;;17.99;54.54;101518.47;7395713;19;1540;-34
2024/01/13 01:45:43;;;;;;;;;;;;;;;18.00;54.29;101518.34;7397201;19;1570;-35
2024/01/13 01:48:12;;;;;;;;;;;;;;;18.00;54.41;101522.84;7397278;19;1769;-34
2024/01/13 01:50:40;;;;;;;;;;;;;;;18.02;54.11;101519.09;7397474;19;1954;-34
2024/01/13 01:53:11;;;;;;;;;;;;;;;18.03;54.17;101533.34;7396985;19;1838;-34
2024/01/13 01:55:42;;;;;;;;;;;;;;;18.01;54.39;101524.56;7396699;19;1815;-34
2024/01/13 01:58:10;;;;;;;;;;;;;;;17.99;54.62;101503.28;7394047;19;1796;-34
2024/01/13 02:00:38;;;;;;;;;;;;;;;17.99;54.49;101515.81;7393059;19;1863;-34
2024/01/13 02:03:07;;;;;;;;;;;;;;;17.85;54.85;101511.44;7395162;19;1702;-34
2024/01/13 02:05:36;;;;;;;;;;;;;;;17.44;55.61;101497.31;7396781;19;1813;-34
2024/01/13 02:08:04;;;;;;;;;;;;;;;17.16;56.21;101503.72;7396434;19;1613;-34
2024/01/13 02:10:33;;;;;;;;;;;;;;;16.96;56.67;101499.75;7397066;19;1071;-34
2024/01/13 02:13:04;;;;;;;;;;;;;;;16.98;56.89;101486.28;7396253;19;1832;-35
2024/01/13 02:15:32;;;;;;;;;;;;;;;17.39;56.37;101491.44;7380815;19;1846;-35
2024/01/13 02:18:00;;;;;;;;;;;;;;;17.59;55.75;101491.88;7396046;19;1946;-34
2024/01/13 02:20:29;;;;;;;;;;;;;;;17.73;55.31;101489.06;7393654;19;1842;-35
2024/01/13 02:22:59;;;;;;;;;;;;;;;17.83;55.35;101489.25;7395222;19;1480;-34
2024/01/13 02:25:28;;;;;;;;;;;;;;;17.97;54.83;101496.31;7395048;19;1321;-35
2024/01/13 02:27:56;;;;;;;;;;;;;;;17.92;54.76;101493.13;7394977;19;1131;-35
2024/01/13 02:30:25;;;;;;;;;;;;;;;17.85;54.74;101498.91;7394076;19;1745;-34
2024/01/13 02:32:53;;;;;;;;;;;;;;;17.81;54.99;101497.41;7395470;19;1309;-34
2024/01/13 02:35:21;;;;;;;;;;;;;;;17.75;55.09;101505.84;7395269;19;1827;-34
2024/01/13 02:37:50;;;;;;;;;;;;;;;17.78;55.22;101492.25;7392885;19;1639;-34
2024/01/13 02:40:20;;;;;;;;;;;;;;;17.76;55.18;101502.19;7394940;19;1851;-34
2024/01/13 02:42:49;;;;;;;;;;;;;;;17.78;55.20;101496.75;7393483;19;1774;-34
2024/01/13 02:45:17;;;;;;;;;;;;;;;17.74;55.15;101480.06;7395122;19;1570;-35
2024/01/13 02:47:47;;;;;;;;;;;;;;;17.77;54.94;101479.00;7394786;19;1816;-35
2024/01/13 02:50:16;;;;;;;;;;;;;;;17.75;55.15;101486.28;7394496;19;1740;-35
2024/01/13 02:52:47;;;;;;;;;;;;;;;17.74;55.22;101511.31;7393941;19;1808;-35
2024/01/13 02:55:15;;;;;;;;;;;;;;;17.75;55.34;101497.00;7393416;19;1740;-34
2024/01/13 02:57:46;;;;;;;;;;;;;;;17.73;55.41;101494.41;7395404;19;1564;-35
2024/01/13 03:00:16;;;;;;;;;;;;;;;17.68;55.02;101501.91;7394148;19;1851;-35
2024/01/13 03:02:46;;;;;;;;;;;;;;;17.72;55.18;101506.06;7395253;19;1824;-34
2024/01/13 03:05:14;;;;;;;;;;;;;;;17.69;55.05;101493.78;7395600;19;1714;-35
2024/01/13 03:07:42;;;;;;;;;;;;;;;17.72;55.25;101491.84;7395132;19;1220;-35
2024/01/13 03:10:11;;;;;;;;;;;;;;;17.72;55.27;101487.34;7396025;19;1094;-34
2024/01/13 03:12:39;;;;;;;;;;;;;;;17.73;55.00;101482.88;7393520;19;1170;-35
2024/01/13 03:15:12;;;;;;;;;;;;;;;17.76;55.04;101499.53;7379614;19;1803;-34
2024/01/13 03:17:40;;;;;;;;;;;;;;;17.74;55.06;101496.09;7393453;19;1305;-35
2024/01/13 03:20:09;;;;;;;;;;;;;;;17.74;55.12;101485.41;7392217;19;1868;-35
2024/01/13 03:22:37;;;;;;;;;;;;;;;17.76;54.79;101477.28;7393698;19;1654;-35
2024/01/13 03:25:06;;;;;;;;;;;;;;;17.78;54.70;101476.19;7393619;19;1670;-35
2024/01/13 03:27:35;;;;;;;;;;;;;;;17.80;54.69;101473.41;7394378;19;1507;-35
2024/01/13 03:30:03;;;;;;;;;;;;;;;17.80;54.85;101471.59;7393520;19;1179;-35
2024/01/13 03:32:34;;;;;;;;;;;;;;;17.77;55.01;101463.81;7395085;19;1036;-35
2024/01/13 03:35:02;;;;;;;;;;;;;;;17.78;54.76;101461.97;7393336;19;1920;-34
2024/01/13 03:37:31;;;;;;;;;;;;;;;17.77;54.82;101455.78;7393166;19;1861;-35
2024/01/13 03:39:59;;;;;;;;;;;;;;;17.77;54.91;101453.09;7392635;19;1864;-35
2024/01/13 03:42:27;;;;;;;;;;;;;;;17.78;54.67;101448.59;7395579;19;1706;-34
2024/01/13 03:44:56;;;;;;;;;;;;;;;17.74;55.02;101439.94;7395660;19;1509;-34
2024/01/13 03:47:24;;;;;;;;;;;;;;;17.81;54.74;101445.72;7394532;19;1722;-35
2024/01/13 03:49:55;;;;;;;;;;;;;;;17.76;54.70;101446.03;7394566;19;1404;-35
2024/01/13 03:52:24;;;;;;;;;;;;;;;17.75;54.68;101447.00;7394209;19;2233;-35
2024/01/13 03:54:52;;;;;;;;;;;;;;;17.83;54.63;101446.47;7395526;19;1698;-34
2024/01/13 03:57:21;;;;;;;;;;;;;;;17.77;54.79;101450.44;7394363;19;1257;-35
2024/01/13 03:59:49;;;;;;;;;;;;;;;17.76;54.59;101448.69;7393820;19;1879;-35
2024/01/13 04:02:18;;;;;;;;;;;;;;;17.94;54.11;101443.88;7395003;19;1472;-35
2024/01/13 04:04:46;;;;;;;;;;;;;;;18.14;53.88;101442.41;7395205;19;1027;-35
2024/01/13 04:07:17;;;;;;;;;;;;;;;18.29;53.53;101453.81;7393780;19;1758;-35
2024/01/13 04:09:46;;;;;;;;;;;;;;;18.39;53.40;101445.94;7393672;19;1923;-35
2024/01/13 04:12:14;;;;;;;;;;;;;;;18.44;53.26;101447.31;7391049;19;1487;-34
2024/01/13 04:14:42;;;;;;;;;;;;;;;18.59;52.97;101469.41;7377141;19;1808;-36
2024/01/13 04:17:10;;;;;;;;;;;;;;;18.60;52.85;101452.38;7390741;19;1569;-34
2024/01/13 04:19:39;;;;;;;;;;;;;;;18.60;52.76;101441.66;7393205;19;1843;-34
2024/01/13 04:22:07;;;;;;;;;;;;;;;18.63;52.90;101438.72;7392125;19;1638;-35
2024/01/13 04:24:38;;;;;;;;;;;;;;;18.64;52.92;101448.50;7390151;19;1294;-34
2024/01/13 04:27:07;;;;;;;;;;;;;;;18.67;52.81;101458.09;7392436;19;1584;-35
2024/01/13 04:29:35;;;;;;;;;;;;;;;18.71;52.76;101450.69;7393016;19;1818;-35
2024/01/13 04:32:03;;;;;;;;;;;;;;;18.69;52.72;101459.69;7392932;19;1054;-34
2024/01/13 04:34:32;;;;;;;;;;;;;;;18.76;52.76;101445.81;7392572;19;1947;-35
2024/01/13 04:37:00;;;;;;;;;;;;;;;18.79;52.72;101437.56;7391432;19;1499;-35
2024/01/13 04:39:29;;;;;;;;;;;;;;;18.81;52.71;101438.34;7392043;19;1451;-35
2024/01/13 04:42:00;;;;;;;;;;;;;;;18.78;52.42;101427.81;7389754;19;1843;-35
2024/01/13 04:44:28;;;;;;;;;;;;;;;18.72;52.62;101433.63;7389748;19;1264;-35
2024/01/13 04:46:56;;;;;;;;;;;;;;;18.54;53.22;101447.44;7391645;19;1412;-34
2024/01/13 04:49:25;;;;;;;;;;;;;;;18.43;53.43;101439.41;7391193;19;1487;-35
2024/01/13 04:51:53;;;;;;;;;;;;;;;18.36;53.55;101438.13;7391378;19;1753;-35
2024/01/13 04:54:21;;;;;;;;;;;;;;;18.43;53.57;101436.72;7391928;19;1596;-34
2024/01/13 04:56:49;;;;;;;;;;;;;;;18.52;53.04;101427.97;7391898;19;884;-35
2024/01/13 04:59:20;;;;;;;;;;;;;;;18.51;53.25;101436.13;7391046;19;1590;-35
2024/01/13 05:01:49;;;;;;;;;;;;;;;18.53;53.16;101428.84;7389606;19;1821;-35
2024/01/13 05:04:17;;;;;;;;;;;;;;;18.60;52.89;101433.63;7390708;19;1841;-34
2024/01/13 05:06:45;;;;;;;;;;;;;;;18.64;52.93;101431.53;7390463;19;1848;-34
2024/01/13 05:09:14;;;;;;;;;;;;;;;18.70;52.86;101433.75;7391256;19;1823;-35
2024/01/13 05:11:42;;;;;;;;;;;;;;;18.27;53.46;101437.84;7390574;19;1163;-34
2024/01/13 05:14:10;;;;;;;;;;;;;;;17.72;54.87;101423.13;7391687;19;1804;-34
2024/01/13 05:16:41;;;;;;;;;;;;;;;17.41;55.50;101438.72;7376733;19;1831;-34
2024/01/13 05:19:10;;;;;;;;;;;;;;;17.69;55.08;101418.03;7389021;19;1684;-35
2024/01/13 05:21:38;;;;;;;;;;;;;;;18.20;54.01;101438.41;7390057;19;1842;-34
2024/01/13 05:24:06;;;;;;;;;;;;;;;18.46;53.67;101437.34;7390580;19;1788;-34
2024/01/13 05:26:35;;;;;;;;;;;;;;;18.57;53.26;101412.41;7389958;19;1826;-34
2024/01/13 05:29:03;;;;;;;;;;;;;;;18.74;52.75;101429.88;7390057;19;1903;-34
2024/01/13 05:31:32;;;;;;;;;;;;;;;18.49;53.39;101444.28;7390543;19;1472;-34
2024/01/13 05:34:03;;;;;;;;;;;;;;;18.39;53.70;101432.56;7390287;19;1809;-34
2024/01/13 05:36:32;;;;;;;;;;;;;;;18.38;53.78;101449.59;7396616;19;1725;-35
2024/01/13 05:39:00;;;;;;;;;;;;;;;18.32;53.99;101436.66;7396761;19;1408;-35
2024/01/13 05:41:28;;;;;;;;;;;;;;;18.26;53.97;101430.81;7395895;19;1840;-35
2024/01/13 05:43:57;;;;;;;;;;;;;;;18.22;54.32;101442.72;7395301;19;1511;-34
2024/01/13 05:46:25;;;;;;;;;;;;;;;18.18;54.18;101438.53;7397494;19;1766;-35
2024/01/13 05:48:53;;;;;;;;;;;;;;;18.23;54.31;101444.41;7398212;19;1187;-34
2024/01/13 05:51:24;;;;;;;;;;;;;;;18.43;53.81;101444.75;7398666;19;1098;-34
2024/01/13 05:53:52;;;;;;;;;;;;;;;18.51;53.51;101439.66;7397269;19;1823;-34
2024/01/13 05:56:21;;;;;;;;;;;;;;;18.58;53.12;101438.25;7396365;19;1915;-34
2024/01/13 05:58:49;;;;;;;;;;;;;;;18.61;53.13;101454.06;7396790;19;1820;-34
2024/01/13 06:01:17;;;;;;;;;;;;;;;18.62;53.08;101466.50;7395870;19;1857;-35
2024/01/13 06:03:46;;;;;;;;;;;;;;;18.59;53.27;101466.72;7396843;19;1807;-34
2024/01/13 06:06:14;;;;;;;;;;;;;;;18.64;53.20;101467.25;7394991;19;1567;-34
2024/01/13 06:08:45;;;;;;;;;;;;;;;18.64;53.37;101453.84;7395308;19;1488;-34
2024/01/13 06:11:13;;;;;;;;;;;;;;;18.64;53.44;101474.41;7395123;19;1673;-34
2024/01/13 06:13:42;;;;;;;;;;;;;;;18.64;53.48;101475.28;7397737;19;1016;-35
2024/01/13 06:16:10;;;;;;;;;;;;;;;18.65;53.42;101474.28;7382245;19;1903;-34
2024/01/13 06:18:38;;;;;;;;;;;;;;;18.72;53.38;101449.72;7396414;19;1484;-34
2024/01/13 06:21:07;;;;;;;;;;;;;;;18.29;54.49;101451.13;7394161;19;1865;-35
2024/01/13 06:23:35;;;;;;;;;;;;;;;18.08;55.36;101466.94;7396002;19;1686;-34
2024/01/13 06:26:07;;;;;;;;;;;;;;;17.92;55.73;101458.34;7395497;19;1387;-34
2024/01/13 06:28:35;;;;;;;;;;;;;;;17.82;55.89;101482.19;7395294;19;1757;-34
2024/01/13 06:31:03;;;;;;;;;;;;;;;17.77;56.22;101458.44;7394607;19;1340;-34
2024/01/13 06:33:32;;;;;;;;;;;;;;;17.86;56.10;101479.19;7394791;19;1860;-35
2024/01/13 06:36:00;;;;;;;;;;;;;;;17.89;55.83;101479.00;7394001;19;1516;-34
2024/01/13 06:38:29;;;;;;;;;;;;;;;18.47;55.14;101475.69;7396163;19;1713;-34
2024/01/13 06:40:57;;;;;;;;;;;;;;;19.23;53.25;101478.88;7395135;19;1871;-34
2024/01/13 06:43:28;;;;;;;;;;;;;;;19.53;52.00;101469.38;7393168;19;1245;-34
2024/01/13 06:45:56;;;;;;;;;;;;;;;19.56;51.97;101480.72;7395277;19;1925;-35
2024/01/13 06:48:24;;;;;;;;;;;;;;;19.37;52.09;101473.25;7394644;19;1820;-35
2024/01/13 06:50:53;;;;;;;;;;;;;;;19.11;52.42;101477.16;7394679;19;1838;-35
2024/01/13 06:53:21;;;;;;;;;;;;;;;18.86;52.97;101468.28;7395154;19;1749;-34
2024/01/13 06:55:49;;;;;;;;;;;;;;;18.69;53.36;101483.81;7394129;19;1214;-34
2024/01/13 06:58:17;;;;;;;;;;;;;;;18.71;53.17;101489.06;7394356;19;1400;-34
2024/01/13 07:00:48;;;;;;;;;;;;;;;18.84;53.04;101489.88;7393385;19;1843;-34
2024/01/13 07:03:17;;;;;;;;;;;;;;;19.02;52.18;101484.94;7392838;19;1744;-34
2024/01/13 07:05:45;;;;;;;;;;;;;;;18.96;52.35;101488.09;7393547;19;1817;-34
2024/01/13 07:08:14;;;;;;;;;;;;;;;18.85;52.67;101467.44;7395012;19;1512;-34
2024/01/13 07:10:42;;;;;;;;;;;;;;;18.78;53.53;101471.56;7392674;19;1162;-35
2024/01/13 07:13:10;;;;;;;;;;;;;;;18.78;53.39;101465.31;7393862;19;1348;-34
2024/01/13 07:15:39;;;;;;;;;;;;;;;18.78;53.61;101470.66;7379751;19;1546;-35
2024/01/13 07:18:10;;;;;;;;;;;;;;;18.93;53.22;101474.91;7394908;19;1577;-35
2024/01/13 07:20:38;;;;;;;;;;;;;;;18.97;53.08;101468.34;7392875;19;1862;-34
2024/01/13 07:23:06;;;;;;;;;;;;;;;18.92;53.37;101470.53;7393039;19;1386;-35
2024/01/13 07:25:35;;;;;;;;;;;;;;;18.95;53.42;101461.38;7392970;19;1365;-34
2024/01/13 07:28:03;;;;;;;;;;;;;;;19.03;52.98;101470.53;7393478;19;1401;-35
2024/01/13 07:30:31;;;;;;;;;;;;;;;19.03;53.08;101465.19;7392924;19;1496;-34
2024/01/13 07:33:00;;;;;;;;;;;;;;;19.27;52.33;101473.13;7392410;19;1424;-35
2024/01/13 07:35:31;;;;;;;;;;;;;;;19.29;52.30;101448.88;7392612;19;1504;-34
2024/01/13 07:38:00;;;;;;;;;;;;;;;19.55;51.76;101470.97;7391276;19;1225;-34
2024/01/13 07:40:29;;;;;;;;;;;;;;;19.72;51.17;101460.75;7392874;19;1235;-34
2024/01/13 07:42:57;;;;;;;;;;;;;;;19.60;51.31;101462.56;7389506;19;1824;-34
2024/01/13 07:45:25;;;;;;;;;;;;;;;19.42;51.44;101463.03;7390711;19;1566;-35
2024/01/13 07:47:54;;;;;;;;;;;;;;;19.15;52.30;101462.53;7391371;19;1475;-34
2024/01/13 07:50:22;;;;;;;;;;;;;;;18.96;52.63;101455.03;7392373;19;1352;-34
2024/01/13 07:52:53;;;;;;;;;;;;;;;19.10;52.54;101462.00;7392695;19;1697;-35
2024/01/13 07:55:21;;;;;;;;;;;;;;;19.34;51.69;101457.44;7391078;19;1444;-34
2024/01/13 07:57:50;;;;;;;;;;;;;;;19.55;51.28;101456.69;7391438;19;1490;-33
2024/01/13 08:00:19;;;;;;;;;;;;;;;19.27;50.91;101467.75;7391159;19;1483;-34
2024/01/13 08:02:47;;;;;;;;;;;;;;;18.27;49.49;101453.91;7391476;19;1853;-34
2024/01/13 08:05:16;;;;;;;;;;;;;;;18.06;53.29;101464.41;7392087;19;1384;-34
2024/01/13 08:07:44;;;;;;;;;;;;;;;17.98;53.85;101458.72;7392718;19;1606;-35
2024/01/13 08:10:15;;;;;;;;;;;;;;;18.02;54.02;101445.97;7391244;19;1355;-39
2024/01/13 08:12:44;;;;;;;;;;;;;;;17.99;54.31;101446.22;7390583;19;1559;-35
2024/01/13 08:15:12;;;;;;;;;;;;;;;17.95;54.44;101448.25;7392098;19;1678;-35
2024/01/13 08:17:41;;;;;;;;;;;;;;;17.85;54.49;101449.91;7374123;19;1486;-34
2024/01/13 08:20:09;;;;;;;;;;;;;;;17.85;55.01;101448.06;7386428;19;1456;-35
2024/01/13 08:22:38;;;;;;;;;;;;;;;17.99;55.05;101483.69;7388951;19;1866;-37
2024/01/13 08:25:06;;;;;;;;;;;;;;;17.92;55.12;101437.78;7389740;19;1461;-36
2024/01/13 08:27:37;;;;;;;;;;;;;;;17.85;55.46;101439.22;7389689;19;1794;-36
2024/01/13 08:30:06;;;;;;;;;;;;;;;17.82;56.03;101444.72;7390517;19;1583;-36
2024/01/13 08:32:35;;;;;;;;;;;;;;;17.86;56.39;101448.91;7390259;19;1514;-37
2024/01/13 08:35:03;;;;;;;;;;;;;;;17.86;56.21;101452.44;7389329;19;1549;-37
2024/01/13 08:37:31;;;;;;;;;;;;;;;17.81;56.48;101457.25;7388788;19;1515;-36
2024/01/13 08:39:59;;;;;;;;;;;;;;;17.65;57.00;101443.28;7387202;19;1129;-37
2024/01/13 08:42:28;;;;;;;;;;;;;;;17.64;57.64;101462.97;7386981;19;1860;-36
2024/01/13 08:44:59;;;;;;;;;;;;;;;17.78;57.32;101428.03;7388097;19;1967;-36
2024/01/13 08:47:27;;;;;;;;;;;;;;;17.77;57.64;101439.72;7388968;19;1592;-37
2024/01/13 08:49:55;;;;;;;;;;;;;;;17.68;57.49;101427.84;7390873;19;1162;-36
2024/01/13 08:52:23;;;;;;;;;;;;;;;17.58;57.40;101423.28;7390532;19;1587;-36
2024/01/13 08:54:52;;;;;;;;;;;;;;;17.53;56.97;101423.63;7385494;19;1583;-36
2024/01/13 08:57:20;;;;;;;;;;;;;;;17.54;56.54;101419.13;7387759;19;1453;-37
2024/01/13 08:59:48;;;;;;;;;;;;;;;17.65;56.10;101419.22;7390032;19;1523;-36
2024/01/13 09:02:19;;;;;;;;;;;;;;;17.83;55.63;101417.03;7388241;19;1851;-37
2024/01/13 09:04:48;;;;;;;;;;;;;;;17.74;55.74;101398.97;7385215;19;1861;-36
2024/01/13 09:07:17;;;;;;;;;;;;;;;17.64;56.20;101402.28;7386004;19;1814;-36
2024/01/13 09:09:45;;;;;;;;;;;;;;;18.01;54.34;101398.81;7391490;19;1765;-37
2024/01/13 09:12:13;;;;;;;;;;;;;;;18.51;52.46;101393.28;7396229;19;1381;-37
2024/01/13 09:14:42;;;;;;;;;;;;;;;18.84;51.77;101379.13;7397683;19;1595;-37
2024/01/13 09:17:11;;;;;;;;;;;;;;;19.14;51.08;101399.13;7378332;19;1477;-34
2024/01/13 09:19:42;;;;;;;;;;;;;;;19.33;50.73;101383.31;7394179;19;1241;-34
2024/01/13 09:22:11;;;;;;;;;;;;;;;19.44;50.78;101379.78;7382996;19;1870;-34
2024/01/13 09:24:39;;;;;;;;;;;;;;;19.39;50.50;101373.91;7386908;19;1572;-35
2024/01/13 09:27:07;;;;;;;;;;;;;;;19.57;50.16;101360.84;7388661;19;1509;-34
2024/01/13 09:29:36;;;;;;;;;;;;;;;19.56;50.28;101359.16;7389695;19;1030;-34
2024/01/13 09:32:05;;;;;;;;;;;;;;;19.52;50.53;101363.91;7390014;19;1896;-34
2024/01/13 09:34:33;;;;;;;;;;;;;;;19.46;50.46;101348.31;7390312;19;1515;-34
2024/01/13 09:37:05;;;;;;;;;;;;;;;19.42;50.58;101355.75;7393421;19;1883;-34
2024/01/13 09:39:33;;;;;;;;;;;;;;;19.42;50.83;101344.19;7390441;19;1773;-34
2024/01/13 09:42:03;;;;;;;;;;;;;;;19.46;50.76;101359.91;7391833;19;1862;-34
2024/01/13 09:44:32;;;;;;;;;;;;;;;19.41;50.73;101340.63;7392322;19;1588;-34
2024/01/13 09:47:01;;;;;;;;;;;;;;;19.37;50.67;101349.06;7394434;19;1536;-34
2024/01/13 09:49:30;;;;;;;;;;;;;;;19.33;50.97;101342.22;7393307;19;1587;-34
2024/01/13 09:51:59;;;;;;;;;;;;;;;19.36;50.78;101358.94;7393365;19;1284;-34
2024/01/13 09:54:30;;;;;;;;;;;;;;;19.44;50.60;101340.38;7393099;19;1357;-34
2024/01/13 09:56:59;;;;;;;;;;;;;;;19.41;50.80;101348.66;7393123;19;1319;-34
2024/01/13 09:59:28;;;;;;;;;;;;;;;19.42;50.76;101339.66;7393867;19;1041;-34
2024/01/13 10:01:56;;;;;;;;;;;;;;;19.39;50.61;101337.22;7393561;19;1843;-34
2024/01/13 10:04:25;;;;;;;;;;;;;;;19.46;50.96;101337.59;7396584;19;1853;-34
2024/01/13 10:06:53;;;;;;;;;;;;;;;19.42;50.89;101325.41;7396546;19;1839;-34
2024/01/13 10:09:21;;;;;;;;;;;;;;;19.43;50.68;101319.91;7397018;19;1634;-34
2024/01/13 10:11:53;;;;;;;;;;;;;;;19.45;50.54;101317.94;7396297;19;1420;-34
2024/01/13 10:14:21;;;;;;;;;;;;;;;19.53;50.73;101332.56;7396567;19;1762;-34
2024/01/13 10:16:49;;;;;;;;;;;;;;;19.57;50.41;101326.81;7396179;19;1237;-34
2024/01/13 10:19:18;;;;;;;;;;;;;;;19.56;50.37;101326.97;7396095;19;1202;-34
2024/01/13 10:21:47;;;;;;;;;;;;;;;19.56;50.65;101326.97;7394576;19;1863;-34
2024/01/13 10:24:15;;;;;;;;;;;;;;;19.62;50.60;101329.16;7396982;19;1065;-36
2024/01/13 10:26:44;;;;;;;;;;;;;;;19.64;50.38;101328.03;7396451;19;1836;-34
2024/01/13 10:29:15;;;;;;;;;;;;;;;19.59;50.65;101337.44;7396000;19;1948;-34
2024/01/13 10:31:43;;;;;;;;;;;;;;;19.61;50.60;101316.69;7395151;19;1865;-35
2024/01/13 10:34:12;;;;;;;;;;;;;;;19.57;50.46;101317.91;7395810;19;1694;-34
2024/01/13 10:36:41;;;;;;;;;;;;;;;19.62;50.47;101310.38;7394834;19;1409;-34
2024/01/13 10:39:10;;;;;;;;;;;;;;;19.63;50.35;101312.91;7395506;19;1424;-34
2024/01/13 10:41:40;;;;;;;;;;;;;;;19.63;50.37;101317.41;7394789;19;1602;-34
2024/01/13 10:44:11;;;;;;;;;;;;;;;19.67;50.23;101324.22;7393399;19;1400;-34
2024/01/13 10:46:45;;;;;;;;;;;;;;;19.67;50.45;101321.56;7394617;19;1944;-34
2024/01/13 10:49:16;;;;;;;;;;;;;;;19.63;50.51;101306.69;7394549;19;1491;-35
2024/01/13 10:51:45;;;;;;;;;;;;;;;19.65;50.40;101315.47;7395252;19;1505;-34
2024/01/13 10:54:15;;;;;;;;;;;;;;;19.63;50.63;101302.16;7396324;19;958;-34
2024/01/13 10:56:43;;;;;;;;;;;;;;;19.67;50.56;101292.03;7395108;19;1104;-34
2024/01/13 10:59:13;;;;;;;;;;;;;;;19.61;50.57;101308.66;7393203;19;1831;-34
2024/01/13 11:01:46;;;;;;;;;;;;;;;19.54;49.94;101294.06;7394166;19;1426;-34
2024/01/13 11:04:14;;;;;;;;;;;;;;;19.30;49.41;101289.72;7394311;19;1578;-34
2024/01/13 11:06:43;;;;;;;;;;;;;;;19.28;49.47;101297.03;7392738;19;1490;-34
2024/01/13 11:09:13;;;;;;;;;;;;;;;19.13;49.84;101279.50;7391248;19;1370;-34
2024/01/13 11:11:43;;;;;;;;;;;;;;;19.13;49.83;101293.75;7389093;19;1984;-34
2024/01/13 11:14:14;;;;;;;;;;;;;;;19.26;49.43;101277.53;7392719;19;1276;-38
2024/01/13 11:16:47;;;;;;;;;;;;;;;19.37;49.52;101269.44;7390605;19;1471;-34
2024/01/13 11:19:16;;;;;;;;;;;;;;;19.44;49.47;101275.16;7393976;19;1567;-34
2024/01/13 11:21:48;;;;;;;;;;;;;;;19.49;49.42;101264.91;7394949;19;1003;-34
2024/01/13 11:24:17;;;;;;;;;;;;;;;19.57;49.04;101281.22;7392292;19;1863;-34
2024/01/13 11:26:46;;;;;;;;;;;;;;;19.56;49.06;101267.94;7393701;19;1491;-34
2024/01/13 11:29:19;;;;;;;;;;;;;;;19.64;49.07;101270.84;7393390;19;1531;-34
2024/01/13 11:31:56;;;;;;;;;;;;;;;19.58;49.47;101266.00;7392475;19;1820;-34
2024/01/13 11:34:25;;;;;;;;;;;;;;;19.52;49.61;101287.94;7392146;19;1912;-34
2024/01/13 11:36:54;;;;;;;;;;;;;;;19.61;49.22;101260.34;7394313;19;1758;-34
2024/01/13 11:39:22;;;;;;;;;;;;;;;19.56;49.37;101271.47;7393480;19;1306;-34
2024/01/13 11:41:54;;;;;;;;;;;;;;;19.57;49.44;101253.53;7393748;19;1750;-34
2024/01/13 11:44:24;;;;;;;;;;;;;;;19.64;49.04;101257.44;7391992;19;1866;-34
2024/01/13 11:47:04;;;;;;;;;;;;;;;19.65;49.05;101267.16;6365374;19;10000803;-35
2024/01/13 11:49:30;;;;;;;;;;;;;;;19.53;49.36;101246.72;7385441;19;1432;-34
2024/01/13 11:51:59;;;;;;;;;;;;;;;19.66;49.23;101264.34;7386407;19;1523;-34
2024/01/13 11:54:28;;;;;;;;;;;;;;;19.58;49.38;101244.53;7386281;19;1436;-34
2024/01/13 11:56:57;;;;;;;;;;;;;;;19.60;49.57;101247.94;7382052;19;1703;-34
2024/01/13 11:59:25;;;;;;;;;;;;;;;19.58;49.26;101244.53;7384679;19;1428;-34
2024/01/13 12:01:54;;;;;;;;;;;;;;;19.64;49.55;101249.38;7385539;19;1477;-35
2024/01/13 12:04:27;;;;;;;;;;;;;;;19.66;49.35;101259.00;7383881;19;1865;-34
2024/01/13 12:06:55;;;;;;;;;;;;;;;19.64;49.47;101234.13;7383476;19;1396;-34
2024/01/13 12:09:25;;;;;;;;;;;;;;;19.64;49.29;101233.28;7386939;19;1189;-34
2024/01/13 12:11:55;;;;;;;;;;;;;;;19.09;50.79;101233.31;7383545;19;1447;-34
2024/01/13 12:14:28;;;;;;;;;;;;;;;18.58;51.77;101240.03;7385189;19;1950;-34
2024/01/13 12:16:56;;;;;;;;;;;;;;;18.32;52.64;101239.38;7384917;19;1670;-34
2024/01/13 12:19:28;;;;;;;;;;;;;;;18.16;52.87;101233.50;7385946;19;1562;-34
2024/01/13 12:21:57;;;;;;;;;;;;;;;18.06;53.15;101230.69;7383203;19;1507;-34
2024/01/13 12:24:28;;;;;;;;;;;;;;;17.98;53.12;101231.28;7383779;19;1845;-35
2024/01/13 12:26:57;;;;;;;;;;;;;;;17.80;53.34;101233.50;7385795;19;1574;-34
2024/01/13 12:29:29;;;;;;;;;;;;;;;17.65;53.69;101230.16;7385747;19;1903;-35
2024/01/13 12:31:58;;;;;;;;;;;;;;;17.60;53.69;101220.78;7384452;19;1837;-34
2024/01/13 12:34:29;;;;;;;;;;;;;;;17.56;53.68;101235.34;7383131;19;1837;-34
2024/01/13 12:36:58;;;;;;;;;;;;;;;17.53;54.04;101241.78;7382903;19;1425;-34
2024/01/13 12:39:26;;;;;;;;;;;;;;;17.55;54.10;101225.59;7385368;19;1281;-34
2024/01/13 12:41:55;;;;;;;;;;;;;;;17.55;54.33;101236.31;7382934;19;1619;-34
2024/01/13 12:44:24;;;;;;;;;;;;;;;18.05;52.80;101232.50;7380519;19;1853;-33
2024/01/13 12:46:56;;;;;;;;;;;;;;;18.39;52.24;101245.13;7383198;19;2433;-32
2024/01/13 12:49:24;;;;;;;;;;;;;;;19.01;50.93;101222.38;7383846;19;1395;-33
2024/01/13 12:51:56;;;;;;;;;;;;;;;19.04;50.64;101236.38;7384598;19;1610;-33
2024/01/13 12:54:25;;;;;;;;;;;;;;;19.13;50.45;101240.13;7384521;19;1519;-32
2024/01/13 12:56:54;;;;;;;;;;;;;;;19.06;50.52;101237.09;7385052;19;1571;-32